sensor_id;sensor_type;location;lat;lon;timestamp;P1;durP1;ratioP1;P2;durP2;ratioP2
36315;SDS011;22343;50.820;2.666;2023-04-20T00:01:35;10.23;;;7.20;;
36315;SDS011;22343;50.820;2.666;2023-04-20T00:04:19;9.90;;;7.77;;
36315;SDS011;22343;50.820;2.666;2023-04-20T00:07:04;10.00;;;7.20;;
36315;SDS011;22343;50.820;2.666;2023-04-20T00:09:49;9.47;;;6.87;;
36315;SDS011;22343;50.820;2.666;2023-04-20T00:12:33;9.70;;;7.10;;
36315;SDS011;22343;50.820;2.666;2023-04-20T00:15:17;9.90;;;7.37;;
36315;SDS011;22343;50.820;2.666;2023-04-20T00:18:02;12.27;;;7.20;;
36315;SDS011;22343;50.820;2.666;2023-04-20T00:20:46;12.77;;;7.77;;
36315;SDS011;22343;50.820;2.666;2023-04-20T00:23:30;10.07;;;7.10;;
36315;SDS011;22343;50.820;2.666;2023-04-20T00:26:15;8.23;;;6.00;;
36315;SDS011;22343;50.820;2.666;2023-04-20T00:29:01;10.20;;;7.23;;
36315;SDS011;22343;50.820;2.666;2023-04-20T00:31:45;10.57;;;6.50;;
36315;SDS011;22343;50.820;2.666;2023-04-20T00:34:30;11.00;;;7.00;;
36315;SDS011;22343;50.820;2.666;2023-04-20T00:37:14;9.80;;;6.77;;
36315;SDS011;22343;50.820;2.666;2023-04-20T00:39:58;10.30;;;6.80;;
36315;SDS011;22343;50.820;2.666;2023-04-20T00:42:43;8.93;;;6.67;;
36315;SDS011;22343;50.820;2.666;2023-04-20T00:45:27;9.87;;;6.40;;
36315;SDS011;22343;50.820;2.666;2023-04-20T00:48:12;8.93;;;6.57;;
36315;SDS011;22343;50.820;2.666;2023-04-20T00:50:56;9.90;;;6.70;;
36315;SDS011;22343;50.820;2.666;2023-04-20T00:53:42;8.97;;;6.57;;
36315;SDS011;22343;50.820;2.666;2023-04-20T00:56:27;8.73;;;6.33;;
36315;SDS011;22343;50.820;2.666;2023-04-20T00:59:12;8.63;;;5.90;;
36315;SDS011;22343;50.820;2.666;2023-04-20T01:01:56;6.50;;;4.67;;
36315;SDS011;22343;50.820;2.666;2023-04-20T01:04:41;14.43;;;6.50;;
36315;SDS011;22343;50.820;2.666;2023-04-20T01:07:25;7.83;;;6.37;;
36315;SDS011;22343;50.820;2.666;2023-04-20T01:10:09;10.07;;;5.57;;
36315;SDS011;22343;50.820;2.666;2023-04-20T01:12:54;6.97;;;5.00;;
36315;SDS011;22343;50.820;2.666;2023-04-20T01:15:38;8.13;;;5.63;;
36315;SDS011;22343;50.820;2.666;2023-04-20T01:18:23;9.17;;;6.37;;
36315;SDS011;22343;50.820;2.666;2023-04-20T01:21:07;11.03;;;6.33;;
36315;SDS011;22343;50.820;2.666;2023-04-20T01:23:52;11.07;;;6.67;;
36315;SDS011;22343;50.820;2.666;2023-04-20T01:26:36;9.73;;;6.03;;
36315;SDS011;22343;50.820;2.666;2023-04-20T01:29:20;9.57;;;6.80;;
36315;SDS011;22343;50.820;2.666;2023-04-20T01:32:05;7.53;;;5.30;;
36315;SDS011;22343;50.820;2.666;2023-04-20T01:34:50;9.50;;;6.03;;
36315;SDS011;22343;50.820;2.666;2023-04-20T01:37:34;7.07;;;5.80;;
36315;SDS011;22343;50.820;2.666;2023-04-20T01:40:19;9.23;;;6.13;;
36315;SDS011;22343;50.820;2.666;2023-04-20T01:43:03;7.13;;;6.30;;
36315;SDS011;22343;50.820;2.666;2023-04-20T01:45:47;9.40;;;6.03;;
36315;SDS011;22343;50.820;2.666;2023-04-20T01:48:32;8.00;;;6.17;;
36315;SDS011;22343;50.820;2.666;2023-04-20T01:51:16;9.07;;;6.20;;
36315;SDS011;22343;50.820;2.666;2023-04-20T01:54:01;7.87;;;6.67;;
36315;SDS011;22343;50.820;2.666;2023-04-20T01:56:45;8.70;;;5.73;;
36315;SDS011;22343;50.820;2.666;2023-04-20T01:59:30;10.73;;;6.30;;
36315;SDS011;22343;50.820;2.666;2023-04-20T02:02:14;11.07;;;6.43;;
36315;SDS011;22343;50.820;2.666;2023-04-20T02:04:58;10.40;;;6.77;;
36315;SDS011;22343;50.820;2.666;2023-04-20T02:07:43;8.63;;;5.77;;
36315;SDS011;22343;50.820;2.666;2023-04-20T02:10:27;8.10;;;5.63;;
36315;SDS011;22343;50.820;2.666;2023-04-20T02:13:11;9.87;;;6.50;;
36315;SDS011;22343;50.820;2.666;2023-04-20T02:15:55;9.53;;;5.93;;
36315;SDS011;22343;50.820;2.666;2023-04-20T02:18:40;8.80;;;6.13;;
36315;SDS011;22343;50.820;2.666;2023-04-20T02:21:24;10.43;;;6.20;;
36315;SDS011;22343;50.820;2.666;2023-04-20T02:24:09;9.17;;;6.43;;
36315;SDS011;22343;50.820;2.666;2023-04-20T02:26:53;6.80;;;5.93;;
36315;SDS011;22343;50.820;2.666;2023-04-20T02:29:37;9.17;;;6.13;;
36315;SDS011;22343;50.820;2.666;2023-04-20T02:32:22;8.77;;;5.10;;
36315;SDS011;22343;50.820;2.666;2023-04-20T02:35:06;8.77;;;6.17;;
36315;SDS011;22343;50.820;2.666;2023-04-20T02:37:51;9.37;;;6.40;;
36315;SDS011;22343;50.820;2.666;2023-04-20T02:40:36;12.80;;;6.20;;
36315;SDS011;22343;50.820;2.666;2023-04-20T02:43:20;7.80;;;6.30;;
36315;SDS011;22343;50.820;2.666;2023-04-20T02:46:04;9.20;;;6.43;;
36315;SDS011;22343;50.820;2.666;2023-04-20T02:48:48;8.73;;;6.10;;
36315;SDS011;22343;50.820;2.666;2023-04-20T02:51:33;10.30;;;5.87;;
36315;SDS011;22343;50.820;2.666;2023-04-20T02:54:18;8.00;;;5.63;;
36315;SDS011;22343;50.820;2.666;2023-04-20T02:57:02;8.93;;;6.10;;
36315;SDS011;22343;50.820;2.666;2023-04-20T02:59:47;10.03;;;5.93;;
36315;SDS011;22343;50.820;2.666;2023-04-20T03:02:31;8.43;;;6.13;;
36315;SDS011;22343;50.820;2.666;2023-04-20T03:05:15;10.83;;;6.80;;
36315;SDS011;22343;50.820;2.666;2023-04-20T03:08:00;7.03;;;5.77;;
36315;SDS011;22343;50.820;2.666;2023-04-20T03:10:44;8.53;;;6.00;;
36315;SDS011;22343;50.820;2.666;2023-04-20T03:13:28;6.43;;;5.60;;
36315;SDS011;22343;50.820;2.666;2023-04-20T03:16:13;7.50;;;5.83;;
36315;SDS011;22343;50.820;2.666;2023-04-20T03:18:57;8.67;;;5.97;;
36315;SDS011;22343;50.820;2.666;2023-04-20T03:21:43;8.73;;;6.27;;
36315;SDS011;22343;50.820;2.666;2023-04-20T03:24:28;9.50;;;5.97;;
36315;SDS011;22343;50.820;2.666;2023-04-20T03:27:12;8.63;;;6.07;;
36315;SDS011;22343;50.820;2.666;2023-04-20T03:29:57;7.80;;;5.87;;
36315;SDS011;22343;50.820;2.666;2023-04-20T03:32:41;10.37;;;6.80;;
36315;SDS011;22343;50.820;2.666;2023-04-20T03:35:26;8.23;;;6.90;;
36315;SDS011;22343;50.820;2.666;2023-04-20T03:38:10;9.23;;;6.83;;
36315;SDS011;22343;50.820;2.666;2023-04-20T03:40:54;11.03;;;7.03;;
36315;SDS011;22343;50.820;2.666;2023-04-20T03:43:39;10.77;;;6.60;;
36315;SDS011;22343;50.820;2.666;2023-04-20T03:46:24;11.17;;;6.60;;
36315;SDS011;22343;50.820;2.666;2023-04-20T03:49:09;10.33;;;6.33;;
36315;SDS011;22343;50.820;2.666;2023-04-20T03:51:53;7.77;;;6.23;;
36315;SDS011;22343;50.820;2.666;2023-04-20T03:54:38;11.00;;;6.53;;
36315;SDS011;22343;50.820;2.666;2023-04-20T03:57:22;10.07;;;6.70;;
36315;SDS011;22343;50.820;2.666;2023-04-20T04:00:07;8.03;;;6.23;;
36315;SDS011;22343;50.820;2.666;2023-04-20T04:02:53;9.53;;;6.73;;
36315;SDS011;22343;50.820;2.666;2023-04-20T04:05:37;9.27;;;6.70;;
36315;SDS011;22343;50.820;2.666;2023-04-20T04:08:23;8.60;;;6.50;;
36315;SDS011;22343;50.820;2.666;2023-04-20T04:11:08;9.33;;;6.50;;
36315;SDS011;22343;50.820;2.666;2023-04-20T04:13:53;7.73;;;6.30;;
36315;SDS011;22343;50.820;2.666;2023-04-20T04:16:37;7.53;;;6.10;;
36315;SDS011;22343;50.820;2.666;2023-04-20T04:19:21;12.33;;;6.50;;
36315;SDS011;22343;50.820;2.666;2023-04-20T04:22:06;8.97;;;5.97;;
36315;SDS011;22343;50.820;2.666;2023-04-20T04:24:51;9.50;;;6.47;;
36315;SDS011;22343;50.820;2.666;2023-04-20T04:27:37;20.07;;;14.00;;
36315;SDS011;22343;50.820;2.666;2023-04-20T04:30:22;15.97;;;10.97;;
36315;SDS011;22343;50.820;2.666;2023-04-20T04:33:07;16.73;;;12.17;;
36315;SDS011;22343;50.820;2.666;2023-04-20T04:35:53;11.37;;;9.60;;
36315;SDS011;22343;50.820;2.666;2023-04-20T04:38:38;14.33;;;9.97;;
36315;SDS011;22343;50.820;2.666;2023-04-20T04:41:22;10.30;;;6.93;;
36315;SDS011;22343;50.820;2.666;2023-04-20T04:44:07;12.73;;;6.73;;
36315;SDS011;22343;50.820;2.666;2023-04-20T04:46:52;9.90;;;7.10;;
36315;SDS011;22343;50.820;2.666;2023-04-20T04:49:36;11.43;;;6.60;;
36315;SDS011;22343;50.820;2.666;2023-04-20T04:52:21;9.33;;;6.13;;
36315;SDS011;22343;50.820;2.666;2023-04-20T04:55:06;8.93;;;6.73;;
36315;SDS011;22343;50.820;2.666;2023-04-20T04:57:52;8.53;;;6.00;;
36315;SDS011;22343;50.820;2.666;2023-04-20T05:00:36;15.23;;;11.10;;
36315;SDS011;22343;50.820;2.666;2023-04-20T05:03:21;17.33;;;13.70;;
36315;SDS011;22343;50.820;2.666;2023-04-20T05:06:05;14.77;;;11.30;;
36315;SDS011;22343;50.820;2.666;2023-04-20T05:08:50;13.93;;;9.30;;
36315;SDS011;22343;50.820;2.666;2023-04-20T05:11:35;11.10;;;8.53;;
36315;SDS011;22343;50.820;2.666;2023-04-20T05:14:19;11.63;;;7.90;;
36315;SDS011;22343;50.820;2.666;2023-04-20T05:17:03;10.67;;;7.27;;
36315;SDS011;22343;50.820;2.666;2023-04-20T05:19:48;10.60;;;8.20;;
36315;SDS011;22343;50.820;2.666;2023-04-20T05:22:32;13.73;;;9.50;;
36315;SDS011;22343;50.820;2.666;2023-04-20T05:25:17;10.27;;;8.23;;
36315;SDS011;22343;50.820;2.666;2023-04-20T05:28:01;11.77;;;7.77;;
36315;SDS011;22343;50.820;2.666;2023-04-20T05:30:46;11.23;;;7.83;;
36315;SDS011;22343;50.820;2.666;2023-04-20T05:33:30;9.07;;;7.50;;
36315;SDS011;22343;50.820;2.666;2023-04-20T05:36:14;10.03;;;6.63;;
36315;SDS011;22343;50.820;2.666;2023-04-20T05:38:59;9.60;;;7.20;;
36315;SDS011;22343;50.820;2.666;2023-04-20T05:41:43;11.33;;;6.60;;
36315;SDS011;22343;50.820;2.666;2023-04-20T05:44:27;11.87;;;8.50;;
36315;SDS011;22343;50.820;2.666;2023-04-20T05:47:12;22.73;;;16.10;;
36315;SDS011;22343;50.820;2.666;2023-04-20T05:49:56;55.00;;;33.87;;
36315;SDS011;22343;50.820;2.666;2023-04-20T05:52:41;61.20;;;33.50;;
36315;SDS011;22343;50.820;2.666;2023-04-20T05:55:25;37.50;;;20.73;;
36315;SDS011;22343;50.820;2.666;2023-04-20T05:58:10;13.40;;;8.70;;
36315;SDS011;22343;50.820;2.666;2023-04-20T06:00:54;12.50;;;5.80;;
36315;SDS011;22343;50.820;2.666;2023-04-20T06:03:40;9.20;;;6.00;;
36315;SDS011;22343;50.820;2.666;2023-04-20T06:06:24;8.10;;;5.67;;
36315;SDS011;22343;50.820;2.666;2023-04-20T06:09:09;8.33;;;5.50;;
36315;SDS011;22343;50.820;2.666;2023-04-20T06:11:53;10.77;;;5.63;;
36315;SDS011;22343;50.820;2.666;2023-04-20T06:14:38;8.53;;;5.60;;
36315;SDS011;22343;50.820;2.666;2023-04-20T06:17:23;6.87;;;4.93;;
36315;SDS011;22343;50.820;2.666;2023-04-20T06:20:10;12.00;;;7.97;;
36315;SDS011;22343;50.820;2.666;2023-04-20T06:22:54;7.73;;;5.70;;
36315;SDS011;22343;50.820;2.666;2023-04-20T06:25:39;6.87;;;5.20;;
36315;SDS011;22343;50.820;2.666;2023-04-20T06:28:24;6.53;;;4.93;;
36315;SDS011;22343;50.820;2.666;2023-04-20T06:31:09;10.37;;;6.33;;
36315;SDS011;22343;50.820;2.666;2023-04-20T06:33:53;7.90;;;4.90;;
36315;SDS011;22343;50.820;2.666;2023-04-20T06:36:40;6.97;;;4.70;;
36315;SDS011;22343;50.820;2.666;2023-04-20T06:39:25;5.43;;;4.63;;
36315;SDS011;22343;50.820;2.666;2023-04-20T06:42:09;7.80;;;4.97;;
36315;SDS011;22343;50.820;2.666;2023-04-20T06:44:54;8.63;;;5.30;;
36315;SDS011;22343;50.820;2.666;2023-04-20T06:47:39;8.63;;;5.17;;
36315;SDS011;22343;50.820;2.666;2023-04-20T06:50:24;6.40;;;4.77;;
36315;SDS011;22343;50.820;2.666;2023-04-20T06:53:08;9.93;;;6.20;;
36315;SDS011;22343;50.820;2.666;2023-04-20T06:55:53;7.60;;;5.47;;
36315;SDS011;22343;50.820;2.666;2023-04-20T06:58:38;8.13;;;6.13;;
36315;SDS011;22343;50.820;2.666;2023-04-20T07:01:22;9.30;;;5.47;;
36315;SDS011;22343;50.820;2.666;2023-04-20T07:04:07;11.00;;;5.70;;
36315;SDS011;22343;50.820;2.666;2023-04-20T07:06:52;8.87;;;4.23;;
36315;SDS011;22343;50.820;2.666;2023-04-20T07:09:36;7.10;;;5.10;;
36315;SDS011;22343;50.820;2.666;2023-04-20T07:12:20;9.10;;;5.63;;
36315;SDS011;22343;50.820;2.666;2023-04-20T07:15:05;6.07;;;5.03;;
36315;SDS011;22343;50.820;2.666;2023-04-20T07:17:51;8.43;;;6.07;;
36315;SDS011;22343;50.820;2.666;2023-04-20T07:20:35;10.00;;;5.90;;
36315;SDS011;22343;50.820;2.666;2023-04-20T07:23:19;9.53;;;6.07;;
36315;SDS011;22343;50.820;2.666;2023-04-20T07:26:04;10.03;;;6.10;;
36315;SDS011;22343;50.820;2.666;2023-04-20T07:28:49;10.53;;;5.83;;
36315;SDS011;22343;50.820;2.666;2023-04-20T07:31:34;10.77;;;5.80;;
36315;SDS011;22343;50.820;2.666;2023-04-20T07:34:22;8.93;;;5.10;;
36315;SDS011;22343;50.820;2.666;2023-04-20T07:37:07;9.97;;;5.20;;
36315;SDS011;22343;50.820;2.666;2023-04-20T07:39:51;7.67;;;5.50;;
36315;SDS011;22343;50.820;2.666;2023-04-20T07:42:36;12.03;;;6.17;;
36315;SDS011;22343;50.820;2.666;2023-04-20T07:45:21;7.97;;;5.17;;
36315;SDS011;22343;50.820;2.666;2023-04-20T07:48:06;7.23;;;5.10;;
36315;SDS011;22343;50.820;2.666;2023-04-20T07:50:52;7.67;;;5.23;;
36315;SDS011;22343;50.820;2.666;2023-04-20T07:53:36;8.10;;;5.30;;
36315;SDS011;22343;50.820;2.666;2023-04-20T07:56:20;4.57;;;3.77;;
36315;SDS011;22343;50.820;2.666;2023-04-20T07:59:05;10.47;;;5.43;;
36315;SDS011;22343;50.820;2.666;2023-04-20T08:01:49;8.20;;;5.37;;
36315;SDS011;22343;50.820;2.666;2023-04-20T08:04:35;10.87;;;4.90;;
36315;SDS011;22343;50.820;2.666;2023-04-20T08:07:20;8.40;;;4.73;;
36315;SDS011;22343;50.820;2.666;2023-04-20T08:10:06;7.23;;;5.20;;
36315;SDS011;22343;50.820;2.666;2023-04-20T08:12:51;9.10;;;4.60;;
36315;SDS011;22343;50.820;2.666;2023-04-20T08:15:36;4.23;;;3.30;;
36315;SDS011;22343;50.820;2.666;2023-04-20T08:18:21;9.33;;;3.73;;
36315;SDS011;22343;50.820;2.666;2023-04-20T08:21:05;9.77;;;4.50;;
36315;SDS011;22343;50.820;2.666;2023-04-20T08:23:50;6.90;;;3.97;;
36315;SDS011;22343;50.820;2.666;2023-04-20T08:26:35;7.07;;;3.63;;
36315;SDS011;22343;50.820;2.666;2023-04-20T08:29:20;4.17;;;2.80;;
36315;SDS011;22343;50.820;2.666;2023-04-20T08:32:04;15.13;;;6.03;;
36315;SDS011;22343;50.820;2.666;2023-04-20T08:34:52;11.33;;;6.23;;
36315;SDS011;22343;50.820;2.666;2023-04-20T08:37:37;7.97;;;3.40;;
36315;SDS011;22343;50.820;2.666;2023-04-20T08:40:21;6.07;;;3.40;;
36315;SDS011;22343;50.820;2.666;2023-04-20T08:43:07;7.23;;;3.43;;
36315;SDS011;22343;50.820;2.666;2023-04-20T08:45:51;3.67;;;2.53;;
36315;SDS011;22343;50.820;2.666;2023-04-20T08:48:37;8.90;;;3.40;;
36315;SDS011;22343;50.820;2.666;2023-04-20T08:51:23;6.47;;;3.20;;
36315;SDS011;22343;50.820;2.666;2023-04-20T08:54:07;5.70;;;3.70;;
36315;SDS011;22343;50.820;2.666;2023-04-20T08:56:53;8.93;;;3.63;;
36315;SDS011;22343;50.820;2.666;2023-04-20T08:59:38;6.47;;;3.13;;
36315;SDS011;22343;50.820;2.666;2023-04-20T09:02:22;7.33;;;3.63;;
36315;SDS011;22343;50.820;2.666;2023-04-20T09:05:06;5.47;;;3.20;;
36315;SDS011;22343;50.820;2.666;2023-04-20T09:07:51;7.17;;;3.47;;
36315;SDS011;22343;50.820;2.666;2023-04-20T09:10:40;6.77;;;3.43;;
36315;SDS011;22343;50.820;2.666;2023-04-20T09:13:26;6.90;;;2.80;;
36315;SDS011;22343;50.820;2.666;2023-04-20T09:16:11;8.20;;;3.30;;
36315;SDS011;22343;50.820;2.666;2023-04-20T09:18:57;5.90;;;3.27;;
36315;SDS011;22343;50.820;2.666;2023-04-20T09:21:51;10.47;;;3.97;;
36315;SDS011;22343;50.820;2.666;2023-04-20T09:24:37;10.77;;;4.07;;
36315;SDS011;22343;50.820;2.666;2023-04-20T09:27:22;8.77;;;4.07;;
36315;SDS011;22343;50.820;2.666;2023-04-20T09:30:09;11.77;;;3.93;;
36315;SDS011;22343;50.820;2.666;2023-04-20T09:33:03;6.77;;;3.50;;
36315;SDS011;22343;50.820;2.666;2023-04-20T09:35:47;8.53;;;3.40;;
36315;SDS011;22343;50.820;2.666;2023-04-20T09:38:32;6.27;;;3.53;;
36315;SDS011;22343;50.820;2.666;2023-04-20T09:41:16;6.30;;;3.00;;
36315;SDS011;22343;50.820;2.666;2023-04-20T09:44:01;7.17;;;3.80;;
36315;SDS011;22343;50.820;2.666;2023-04-20T09:46:47;7.40;;;3.23;;
36315;SDS011;22343;50.820;2.666;2023-04-20T09:49:31;6.27;;;3.47;;
36315;SDS011;22343;50.820;2.666;2023-04-20T09:52:16;8.90;;;4.30;;
36315;SDS011;22343;50.820;2.666;2023-04-20T09:55:04;9.43;;;4.23;;
36315;SDS011;22343;50.820;2.666;2023-04-20T09:57:52;7.93;;;4.47;;
36315;SDS011;22343;50.820;2.666;2023-04-20T10:00:37;5.53;;;3.83;;
36315;SDS011;22343;50.820;2.666;2023-04-20T10:03:21;6.73;;;4.10;;
36315;SDS011;22343;50.820;2.666;2023-04-20T10:06:16;9.23;;;4.07;;
36315;SDS011;22343;50.820;2.666;2023-04-20T10:09:02;5.57;;;3.77;;
36315;SDS011;22343;50.820;2.666;2023-04-20T10:11:49;7.43;;;4.53;;
36315;SDS011;22343;50.820;2.666;2023-04-20T10:14:33;5.80;;;3.77;;
36315;SDS011;22343;50.820;2.666;2023-04-20T10:17:27;4.63;;;3.43;;
36315;SDS011;22343;50.820;2.666;2023-04-20T10:20:22;6.30;;;4.20;;
36315;SDS011;22343;50.820;2.666;2023-04-20T10:23:08;7.07;;;5.17;;
36315;SDS011;22343;50.820;2.666;2023-04-20T10:25:58;5.80;;;4.93;;
36315;SDS011;22343;50.820;2.666;2023-04-20T10:28:43;7.10;;;5.80;;
36315;SDS011;22343;50.820;2.666;2023-04-20T10:31:38;7.70;;;5.23;;
36315;SDS011;22343;50.820;2.666;2023-04-20T10:34:30;7.13;;;5.17;;
36315;SDS011;22343;50.820;2.666;2023-04-20T10:37:16;5.37;;;4.50;;
36315;SDS011;22343;50.820;2.666;2023-04-20T10:40:01;6.90;;;5.10;;
36315;SDS011;22343;50.820;2.666;2023-04-20T10:42:47;6.23;;;3.97;;
36315;SDS011;22343;50.820;2.666;2023-04-20T10:45:35;9.53;;;5.67;;
36315;SDS011;22343;50.820;2.666;2023-04-20T10:48:21;7.43;;;4.83;;
36315;SDS011;22343;50.820;2.666;2023-04-20T10:51:08;7.07;;;4.83;;
36315;SDS011;22343;50.820;2.666;2023-04-20T10:54:00;7.77;;;5.30;;
36315;SDS011;22343;50.820;2.666;2023-04-20T10:56:49;11.13;;;6.23;;
36315;SDS011;22343;50.820;2.666;2023-04-20T10:59:35;7.30;;;4.67;;
36315;SDS011;22343;50.820;2.666;2023-04-20T11:02:24;9.57;;;6.10;;
36315;SDS011;22343;50.820;2.666;2023-04-20T11:05:09;7.00;;;5.60;;
36315;SDS011;22343;50.820;2.666;2023-04-20T11:07:58;9.37;;;6.20;;
36315;SDS011;22343;50.820;2.666;2023-04-20T11:10:46;6.10;;;4.13;;
36315;SDS011;22343;50.820;2.666;2023-04-20T11:13:31;6.93;;;4.13;;
36315;SDS011;22343;50.820;2.666;2023-04-20T11:16:17;8.30;;;4.73;;
36315;SDS011;22343;50.820;2.666;2023-04-20T11:19:02;14.43;;;7.00;;
36315;SDS011;22343;50.820;2.666;2023-04-20T11:21:47;8.73;;;5.47;;
36315;SDS011;22343;50.820;2.666;2023-04-20T11:24:32;5.07;;;4.10;;
36315;SDS011;22343;50.820;2.666;2023-04-20T11:27:20;6.20;;;4.40;;
36315;SDS011;22343;50.820;2.666;2023-04-20T11:30:07;7.53;;;5.87;;
36315;SDS011;22343;50.820;2.666;2023-04-20T11:32:53;7.60;;;6.13;;
36315;SDS011;22343;50.820;2.666;2023-04-20T11:35:41;9.07;;;6.23;;
36315;SDS011;22343;50.820;2.666;2023-04-20T11:38:30;7.13;;;5.90;;
36315;SDS011;22343;50.820;2.666;2023-04-20T11:41:16;7.43;;;6.07;;
36315;SDS011;22343;50.820;2.666;2023-04-20T11:44:01;6.73;;;4.97;;
36315;SDS011;22343;50.820;2.666;2023-04-20T11:46:45;7.20;;;5.03;;
36315;SDS011;22343;50.820;2.666;2023-04-20T11:49:31;8.57;;;5.47;;
36315;SDS011;22343;50.820;2.666;2023-04-20T11:52:16;6.80;;;4.40;;
36315;SDS011;22343;50.820;2.666;2023-04-20T11:55:00;9.10;;;6.23;;
36315;SDS011;22343;50.820;2.666;2023-04-20T11:57:44;9.60;;;6.57;;
36315;SDS011;22343;50.820;2.666;2023-04-20T12:00:29;8.60;;;5.80;;
36315;SDS011;22343;50.820;2.666;2023-04-20T12:03:13;9.63;;;6.50;;
36315;SDS011;22343;50.820;2.666;2023-04-20T12:05:57;8.73;;;6.80;;
36315;SDS011;22343;50.820;2.666;2023-04-20T12:08:42;9.50;;;7.17;;
36315;SDS011;22343;50.820;2.666;2023-04-20T12:11:27;10.03;;;7.00;;
36315;SDS011;22343;50.820;2.666;2023-04-20T12:14:11;10.97;;;7.60;;
36315;SDS011;22343;50.820;2.666;2023-04-20T12:16:55;7.10;;;5.93;;
36315;SDS011;22343;50.820;2.666;2023-04-20T12:19:39;9.60;;;7.00;;
36315;SDS011;22343;50.820;2.666;2023-04-20T12:22:24;8.00;;;5.60;;
36315;SDS011;22343;50.820;2.666;2023-04-20T12:25:08;7.23;;;6.20;;
36315;SDS011;22343;50.820;2.666;2023-04-20T12:27:53;8.80;;;6.67;;
36315;SDS011;22343;50.820;2.666;2023-04-20T12:30:37;10.37;;;6.90;;
36315;SDS011;22343;50.820;2.666;2023-04-20T12:33:22;9.77;;;7.13;;
36315;SDS011;22343;50.820;2.666;2023-04-20T12:36:06;8.63;;;6.13;;
36315;SDS011;22343;50.820;2.666;2023-04-20T12:38:51;7.43;;;5.80;;
36315;SDS011;22343;50.820;2.666;2023-04-20T12:41:35;7.33;;;6.10;;
36315;SDS011;22343;50.820;2.666;2023-04-20T12:44:20;7.80;;;6.30;;
36315;SDS011;22343;50.820;2.666;2023-04-20T12:47:04;7.00;;;6.03;;
36315;SDS011;22343;50.820;2.666;2023-04-20T12:49:48;6.83;;;5.53;;
36315;SDS011;22343;50.820;2.666;2023-04-20T12:52:33;6.03;;;4.93;;
36315;SDS011;22343;50.820;2.666;2023-04-20T12:55:17;7.73;;;5.87;;
36315;SDS011;22343;50.820;2.666;2023-04-20T12:58:02;8.33;;;6.70;;
36315;SDS011;22343;50.820;2.666;2023-04-20T13:00:46;8.70;;;5.40;;
36315;SDS011;22343;50.820;2.666;2023-04-20T13:03:30;8.47;;;6.67;;
36315;SDS011;22343;50.820;2.666;2023-04-20T13:06:15;6.53;;;5.50;;
36315;SDS011;22343;50.820;2.666;2023-04-20T13:09:00;10.23;;;7.20;;
36315;SDS011;22343;50.820;2.666;2023-04-20T13:11:46;11.00;;;7.13;;
36315;SDS011;22343;50.820;2.666;2023-04-20T13:14:30;9.43;;;6.63;;
36315;SDS011;22343;50.820;2.666;2023-04-20T13:17:15;8.60;;;7.00;;
36315;SDS011;22343;50.820;2.666;2023-04-20T13:19:59;9.90;;;7.17;;
36315;SDS011;22343;50.820;2.666;2023-04-20T13:22:43;6.87;;;5.53;;
36315;SDS011;22343;50.820;2.666;2023-04-20T13:25:28;8.70;;;7.30;;
36315;SDS011;22343;50.820;2.666;2023-04-20T13:28:15;6.47;;;5.50;;
36315;SDS011;22343;50.820;2.666;2023-04-20T13:31:00;10.83;;;7.43;;
36315;SDS011;22343;50.820;2.666;2023-04-20T13:33:44;9.60;;;7.77;;
36315;SDS011;22343;50.820;2.666;2023-04-20T13:36:29;11.40;;;7.57;;
36315;SDS011;22343;50.820;2.666;2023-04-20T13:39:14;7.70;;;5.57;;
36315;SDS011;22343;50.820;2.666;2023-04-20T13:42:00;9.17;;;7.90;;
36315;SDS011;22343;50.820;2.666;2023-04-20T13:44:45;9.27;;;8.07;;
36315;SDS011;22343;50.820;2.666;2023-04-20T13:47:29;11.77;;;9.10;;
36315;SDS011;22343;50.820;2.666;2023-04-20T13:50:14;9.90;;;7.93;;
36315;SDS011;22343;50.820;2.666;2023-04-20T13:52:58;13.67;;;9.30;;
36315;SDS011;22343;50.820;2.666;2023-04-20T13:55:42;11.73;;;10.20;;
36315;SDS011;22343;50.820;2.666;2023-04-20T13:58:27;11.43;;;8.90;;
36315;SDS011;22343;50.820;2.666;2023-04-20T14:01:12;11.27;;;9.73;;
36315;SDS011;22343;50.820;2.666;2023-04-20T14:03:59;11.60;;;8.37;;
36315;SDS011;22343;50.820;2.666;2023-04-20T14:06:43;13.33;;;9.57;;
36315;SDS011;22343;50.820;2.666;2023-04-20T14:09:29;13.00;;;10.27;;
36315;SDS011;22343;50.820;2.666;2023-04-20T14:12:14;14.70;;;10.40;;
36315;SDS011;22343;50.820;2.666;2023-04-20T14:14:58;12.53;;;9.70;;
36315;SDS011;22343;50.820;2.666;2023-04-20T14:17:43;11.43;;;9.43;;
36315;SDS011;22343;50.820;2.666;2023-04-20T14:20:28;11.53;;;9.10;;
36315;SDS011;22343;50.820;2.666;2023-04-20T14:23:13;11.50;;;10.30;;
36315;SDS011;22343;50.820;2.666;2023-04-20T14:25:58;12.50;;;10.90;;
36315;SDS011;22343;50.820;2.666;2023-04-20T14:28:43;12.30;;;10.40;;
36315;SDS011;22343;50.820;2.666;2023-04-20T14:31:29;13.63;;;10.70;;
36315;SDS011;22343;50.820;2.666;2023-04-20T14:34:14;13.27;;;10.27;;
36315;SDS011;22343;50.820;2.666;2023-04-20T14:36:58;13.70;;;10.80;;
36315;SDS011;22343;50.820;2.666;2023-04-20T14:39:42;12.63;;;8.60;;
36315;SDS011;22343;50.820;2.666;2023-04-20T14:42:27;11.43;;;8.70;;
36315;SDS011;22343;50.820;2.666;2023-04-20T14:45:11;12.87;;;10.87;;
36315;SDS011;22343;50.820;2.666;2023-04-20T14:47:56;11.93;;;9.70;;
36315;SDS011;22343;50.820;2.666;2023-04-20T14:50:40;15.50;;;12.00;;
36315;SDS011;22343;50.820;2.666;2023-04-20T14:53:24;10.07;;;8.07;;
36315;SDS011;22343;50.820;2.666;2023-04-20T14:56:09;12.93;;;10.87;;
36315;SDS011;22343;50.820;2.666;2023-04-20T14:58:53;11.03;;;8.50;;
36315;SDS011;22343;50.820;2.666;2023-04-20T15:01:39;15.90;;;12.63;;
36315;SDS011;22343;50.820;2.666;2023-04-20T15:04:24;11.87;;;10.03;;
36315;SDS011;22343;50.820;2.666;2023-04-20T15:07:08;13.20;;;10.97;;
36315;SDS011;22343;50.820;2.666;2023-04-20T15:09:53;12.70;;;11.27;;
36315;SDS011;22343;50.820;2.666;2023-04-20T15:12:37;14.67;;;12.43;;
36315;SDS011;22343;50.820;2.666;2023-04-20T15:15:21;14.30;;;11.53;;
36315;SDS011;22343;50.820;2.666;2023-04-20T15:18:06;16.17;;;11.50;;
36315;SDS011;22343;50.820;2.666;2023-04-20T15:20:50;14.33;;;11.90;;
36315;SDS011;22343;50.820;2.666;2023-04-20T15:23:38;15.80;;;12.20;;
36315;SDS011;22343;50.820;2.666;2023-04-20T15:26:22;14.63;;;12.70;;
36315;SDS011;22343;50.820;2.666;2023-04-20T15:29:06;13.80;;;11.63;;
36315;SDS011;22343;50.820;2.666;2023-04-20T15:31:51;14.67;;;12.30;;
36315;SDS011;22343;50.820;2.666;2023-04-20T15:34:35;13.37;;;10.33;;
36315;SDS011;22343;50.820;2.666;2023-04-20T15:37:19;12.37;;;10.77;;
36315;SDS011;22343;50.820;2.666;2023-04-20T15:40:04;14.63;;;9.27;;
36315;SDS011;22343;50.820;2.666;2023-04-20T15:42:49;10.40;;;7.40;;
36315;SDS011;22343;50.820;2.666;2023-04-20T15:45:34;11.03;;;9.73;;
36315;SDS011;22343;50.820;2.666;2023-04-20T15:48:18;12.43;;;9.83;;
36315;SDS011;22343;50.820;2.666;2023-04-20T15:51:03;11.87;;;9.27;;
36315;SDS011;22343;50.820;2.666;2023-04-20T15:53:47;13.27;;;10.07;;
36315;SDS011;22343;50.820;2.666;2023-04-20T15:56:33;11.53;;;9.57;;
36315;SDS011;22343;50.820;2.666;2023-04-20T15:59:17;10.00;;;7.90;;
36315;SDS011;22343;50.820;2.666;2023-04-20T16:02:02;11.43;;;10.07;;
36315;SDS011;22343;50.820;2.666;2023-04-20T16:04:46;9.87;;;8.60;;
36315;SDS011;22343;50.820;2.666;2023-04-20T16:07:30;11.30;;;9.43;;
36315;SDS011;22343;50.820;2.666;2023-04-20T16:10:14;10.47;;;7.70;;
36315;SDS011;22343;50.820;2.666;2023-04-20T16:12:59;13.77;;;9.90;;
36315;SDS011;22343;50.820;2.666;2023-04-20T16:15:43;11.47;;;9.50;;
36315;SDS011;22343;50.820;2.666;2023-04-20T16:18:27;10.63;;;9.53;;
36315;SDS011;22343;50.820;2.666;2023-04-20T16:21:13;8.17;;;6.10;;
36315;SDS011;22343;50.820;2.666;2023-04-20T16:23:57;10.73;;;8.77;;
36315;SDS011;22343;50.820;2.666;2023-04-20T16:26:41;7.87;;;6.63;;